Time;durP1;ratioP1;P1;durP2;ratioP2;P2;SDS_P1;SDS_P2;PMS_P1;PMS_P2;Temp;Humidity;BMP_temperature;BMP_pressure;BME280_temperature;BME280_humidity;BME280_pressure;Samples;Min_cycle;Max_cycle;Signal;HPM_P1;HPM_P2
2022/03/14 00:00:06;;;;;;;31.60;14.90;;;;;;;-0.86;63.33;102058.81;84153;1338;22630;-69
2022/03/14 00:02:35;;;;;;;28.80;15.90;;;;;;;-0.88;63.53;102060.64;84089;1341;22846;-71
2022/03/14 00:04:50;;;;;;;28.90;15.30;;;;;;;-0.88;63.45;102057.35;84109;1337;23924;-69
2022/03/14 00:06:59;;;;;;;28.00;15.90;;;;;;;-0.92;63.10;102056.73;84134;1338;22611;-69
2022/03/14 00:09:11;;;;;;;25.70;14.30;;;;;;;-0.96;63.61;102051.27;83393;1341;1002985;-70
2022/03/14 00:11:20;;;;;;;28.60;14.80;;;;;;;-0.99;63.53;102054.56;83424;1338;1003647;-70
2022/03/14 00:13:29;;;;;;;26.80;16.20;;;;;;;-1.02;63.10;102055.14;84131;1336;22623;-70
2022/03/14 00:15:40;;;;;;;;;;;;;;;-1.07;63.48;102051.88;84152;1338;23754;-70
2022/03/14 00:17:52;;;;;;;25.70;13.90;;;;;;;-1.12;64.02;102052.05;84134;1338;22596;-70
2022/03/14 00:20:04;;;;;;;25.40;13.70;;;;;;;-1.13;63.75;102050.64;84133;1338;22630;-77
2022/03/14 00:22:14;;;;;;;28.40;14.80;;;;;;;-1.16;63.82;102052.08;84128;1338;23066;-79
2022/03/14 00:24:25;;;;;;;;;;;;;;;-1.18;63.85;102054.05;84071;1341;22733;-80
2022/03/14 00:26:37;;;;;;;28.80;15.80;;;;;;;-1.22;64.53;102054.27;84154;1339;24000;-78
2022/03/14 00:28:49;;;;;;;26.50;13.80;;;;;;;-1.21;64.00;102053.80;84121;1341;22609;-79
2022/03/14 00:30:58;;;;;;;24.90;13.50;;;;;;;-1.20;64.35;102054.16;84149;1338;22715;-69
2022/03/14 00:33:10;;;;;;;28.00;14.90;;;;;;;-1.19;64.88;102053.84;84143;1338;22720;-69
2022/03/14 00:35:19;;;;;;;23.00;14.30;;;;;;;-1.18;64.19;102052.02;84123;1338;22623;-77
2022/03/14 00:37:28;;;;;;;25.70;14.20;;;;;;;-1.18;64.74;102053.73;84183;1337;22619;-79
2022/03/14 00:39:37;;;;;;;24.60;14.00;;;;;;;-1.18;64.59;102051.86;84232;1338;24297;-78
2022/03/14 00:41:49;;;;;;;29.80;16.50;;;;;;;-1.17;64.65;102051.87;84236;1338;22597;-69
2022/03/14 00:43:57;;;;;;;28.00;14.60;;;;;;;-1.17;64.15;102054.77;84196;1338;22617;-69
2022/03/14 00:46:06;;;;;;;21.60;12.80;;;;;;;-1.20;64.66;102055.70;84113;1338;22892;-79
2022/03/14 00:48:15;;;;;;;23.30;14.70;;;;;;;-1.21;64.58;102054.99;84216;1337;25373;-79
2022/03/14 00:50:28;;;;;;;28.30;16.10;;;;;;;-1.23;64.36;102057.81;84190;1337;22618;-71
2022/03/14 00:52:37;;;;;;;28.60;15.10;;;;;;;-1.25;64.54;102054.98;84210;1338;24077;-69
2022/03/14 00:54:49;;;;;;;32.50;15.90;;;;;;;-1.26;64.88;102054.10;84223;1338;23032;-69
2022/03/14 00:56:59;;;;;;;30.30;14.40;;;;;;;-1.28;64.85;102049.94;84172;1330;22857;-70
2022/03/14 00:59:07;;;;;;;22.10;12.50;;;;;;;-1.26;65.22;102052.39;84208;1339;22638;-70
2022/03/14 01:01:16;;;;;;;28.40;14.60;;;;;;;-1.26;64.45;102047.93;84115;1338;22843;-79
2022/03/14 01:03:29;;;;;;;23.90;13.80;;;;;;;-1.26;64.37;102049.48;84195;1338;22687;-79
2022/03/14 01:05:38;;;;;;;22.60;12.50;;;;;;;-1.25;64.93;102045.75;84208;1341;22624;-69
2022/03/14 01:07:47;;;;;;;24.70;13.70;;;;;;;-1.25;64.63;102046.78;84231;1335;24314;-70
2022/03/14 01:09:59;;;;;;;27.50;14.50;;;;;;;-1.25;64.52;102051.39;84182;1338;23933;-70
2022/03/14 01:12:10;;;;;;;24.20;13.80;;;;;;;-1.25;64.90;102051.41;84287;1337;24248;-80
2022/03/14 01:14:20;;;;;;;23.50;13.30;;;;;;;-1.26;64.70;102047.76;83584;1336;1003439;-78
2022/03/14 01:16:28;;;;;;;25.90;15.00;;;;;;;-1.28;64.46;102052.64;84175;1333;22726;-79
2022/03/14 01:18:37;;;;;;;28.00;15.50;;;;;;;-1.32;65.02;102054.42;84182;1337;22604;-78
2022/03/14 01:20:46;;;;;;;26.80;14.50;;;;;;;-1.34;64.69;102054.65;84193;1338;22633;-79
2022/03/14 01:22:55;;;;;;;27.60;16.00;;;;;;;-1.38;64.59;102052.45;84028;1343;23969;-79
2022/03/14 01:25:05;;;;;;;27.20;13.80;;;;;;;-1.41;64.47;102055.42;84180;1338;22637;-70
2022/03/14 01:27:13;;;;;;;24.70;13.40;;;;;;;-1.44;64.93;102051.70;84190;1337;24839;-70
2022/03/14 01:29:25;;;;;;;26.30;13.90;;;;;;;-1.47;64.60;102049.22;84171;1337;22780;-69
2022/03/14 01:31:34;;;;;;;30.80;14.60;;;;;;;-1.49;64.80;102055.29;84190;1337;24319;-70
2022/03/14 01:33:46;;;;;;;28.30;14.60;;;;;;;-1.54;64.48;102051.00;84196;1335;22735;-70
2022/03/14 01:35:59;;;;;;;24.50;14.30;;;;;;;-1.59;64.51;102053.38;84154;1338;22846;-79
2022/03/14 01:38:09;;;;;;;28.70;15.20;;;;;;;-1.64;64.63;102052.85;84106;1338;22608;-79
2022/03/14 01:40:18;;;;;;;27.70;14.30;;;;;;;-1.67;65.09;102050.35;84141;1338;25306;-79
2022/03/14 01:42:27;;;;;;;23.60;14.20;;;;;;;-1.67;65.01;102045.38;84104;1340;22612;-79
2022/03/14 01:44:36;;;;;;;29.80;15.10;;;;;;;-1.67;65.14;102044.00;84136;1338;22600;-78
2022/03/14 01:46:45;;;;;;;25.60;15.00;;;;;;;-1.67;65.25;102046.56;84119;1338;22597;-70
2022/03/14 01:48:55;;;;;;;22.10;13.50;;;;;;;-1.67;65.31;102049.80;84115;1338;23904;-69
2022/03/14 01:51:05;;;;;;;23.80;13.00;;;;;;;-1.64;65.57;102051.10;83472;1338;1003133;-79
2022/03/14 01:53:13;;;;;;;24.20;12.90;;;;;;;-1.62;65.44;102051.02;84074;1336;22969;-79
2022/03/14 01:55:27;;;;;;;25.90;13.40;;;;;;;-1.61;65.16;102052.61;84109;1338;22927;-68
2022/03/14 01:57:36;;;;;;;24.50;12.80;;;;;;;-1.63;65.13;102058.38;84130;1338;22600;-69
2022/03/14 01:59:46;;;;;;;30.10;15.10;;;;;;;-1.65;65.50;102056.91;84109;1338;25484;-69
2022/03/14 02:01:55;;;;;;;24.90;13.20;;;;;;;-1.66;65.41;102060.46;84118;1338;22768;-69
2022/03/14 02:04:08;;;;;;;26.20;13.70;;;;;;;-1.70;65.02;102063.53;84124;1338;24343;-68
2022/03/14 02:06:17;;;;;;;24.20;13.20;;;;;;;-1.75;65.09;102065.21;83869;1341;22622;-69
2022/03/14 02:08:27;;;;;;;29.00;14.40;;;;;;;-1.80;65.07;102063.35;83854;1341;22612;-69
2022/03/14 02:10:36;;;;;;;29.40;13.50;;;;;;;-1.84;65.02;102064.90;84115;1341;22610;-69
2022/03/14 02:12:47;;;;;;;23.50;13.20;;;;;;;-1.88;65.40;102064.56;84130;1337;26586;-70
2022/03/14 02:15:02;;;;;;;25.60;14.90;;;;;;;-1.91;66.02;102064.27;83881;1341;22614;-69
2022/03/14 02:17:13;;;;;;;26.80;13.90;;;;;;;-1.93;65.71;102065.56;83188;1340;1003220;-70
2022/03/14 02:19:22;;;;;;;23.00;13.80;;;;;;;-1.97;65.42;102066.42;84113;1339;22675;-69
2022/03/14 02:21:32;;;;;;;22.20;12.40;;;;;;;-2.01;65.32;102071.90;83210;1343;613874;-70
2022/03/14 02:23:41;;;;;;;24.80;13.50;;;;;;;-2.03;65.98;102068.04;84066;1340;24304;-70
2022/03/14 02:25:55;;;;;;;22.00;12.80;;;;;;;-2.03;65.76;102071.62;84131;1338;22705;-69
2022/03/14 02:28:04;;;;;;;27.90;13.60;;;;;;;-2.04;65.76;102079.30;84058;1341;22780;-70
2022/03/14 02:30:18;;;;;;;26.80;14.50;;;;;;;-2.05;65.68;102073.09;83904;1340;22616;-70
2022/03/14 02:32:27;;;;;;;28.80;14.70;;;;;;;-2.06;65.70;102075.13;83777;1341;23788;-70
2022/03/14 02:34:37;;;;;;;31.90;14.60;;;;;;;-2.07;65.86;102076.28;83409;1338;1003809;-70
2022/03/14 02:36:46;;;;;;;26.70;15.40;;;;;;;-2.09;65.64;102078.95;83519;1338;1002631;-78
2022/03/14 02:38:58;;;;;;;31.30;15.90;;;;;;;-2.12;65.67;102083.77;84302;1337;25467;-79
2022/03/14 02:41:08;;;;;;;26.50;15.10;;;;;;;-2.16;65.58;102084.14;84294;1337;22836;-79
2022/03/14 02:43:22;;;;;;;21.40;11.00;;;;;;;-2.20;65.44;102082.23;84097;1338;22721;-80
2022/03/14 02:45:31;;;;;;;26.00;14.50;;;;;;;-2.26;65.89;102088.65;84313;1337;26515;-69
2022/03/14 02:47:41;;;;;;;28.50;15.10;;;;;;;-2.30;65.69;102090.34;84264;1332;22907;-69
2022/03/14 02:49:50;;;;;;;30.30;15.40;;;;;;;-2.36;65.79;102085.34;84131;1339;22618;-69
2022/03/14 02:51:59;;;;;;;25.70;13.60;;;;;;;-2.39;66.24;102085.37;84295;1333;22675;-69
2022/03/14 02:54:08;;;;;;;29.00;15.70;;;;;;;-2.43;66.08;102085.21;84267;1337;22832;-70
2022/03/14 02:56:20;;;;;;;30.40;14.90;;;;;;;-2.47;66.06;102085.39;84284;1338;24289;-69
2022/03/14 02:58:29;;;;;;;31.10;15.20;;;;;;;-2.51;66.23;102084.17;83896;1341;22715;-70
2022/03/14 03:00:38;;;;;;;28.80;15.10;;;;;;;-2.54;66.36;102085.93;83573;1337;1002993;-79
2022/03/14 03:02:47;;;;;;;26.30;14.70;;;;;;;-2.56;66.43;102090.61;84303;1336;22615;-79
2022/03/14 03:05:05;;;;;;;24.30;13.90;;;;;;;-2.60;66.35;102087.25;84274;1334;22616;-78
2022/03/14 03:07:14;;;;;;;26.30;14.10;;;;;;;-2.61;66.43;102089.05;84237;1338;22628;-79
2022/03/14 03:09:26;;;;;;;24.70;13.40;;;;;;;-2.63;66.69;102085.73;84121;1336;22626;-79
2022/03/14 03:11:39;;;;;;;27.70;14.80;;;;;;;-2.63;66.68;102090.32;84306;1334;22601;-70
2022/03/14 03:13:52;;;;;;;26.00;14.30;;;;;;;-2.64;66.71;102089.80;84271;1338;22936;-69
2022/03/14 03:16:01;;;;;;;26.20;14.10;;;;;;;-2.65;66.97;102095.36;84176;1338;22639;-69
2022/03/14 03:18:10;;;;;;;22.70;13.70;;;;;;;-2.68;66.90;102095.91;83580;1334;1003630;-70
2022/03/14 03:20:19;;;;;;;27.20;14.60;;;;;;;-2.73;66.88;102101.48;84295;1338;22596;-78
2022/03/14 03:22:30;;;;;;;30.30;15.40;;;;;;;-2.77;66.79;102105.10;84191;1338;22565;-79
2022/03/14 03:24:38;;;;;;;27.60;13.70;;;;;;;-2.79;66.92;102103.44;84284;1338;23061;-80
2022/03/14 03:26:47;;;;;;;29.20;15.10;;;;;;;-2.82;67.11;102107.27;83596;1338;1002527;-79
2022/03/14 03:28:56;;;;;;;26.00;13.90;;;;;;;-2.83;67.07;102109.95;83591;1337;1003057;-79
2022/03/14 03:31:07;;;;;;;22.10;13.90;;;;;;;-2.88;67.06;102105.98;84262;1336;22759;-80
2022/03/14 03:33:19;;;;;;;26.00;14.90;;;;;;;-2.91;67.22;102105.17;84103;1338;23981;-79
2022/03/14 03:35:28;;;;;;;27.90;15.20;;;;;;;-2.94;67.17;102109.47;84283;1336;22752;-79
2022/03/14 03:37:38;;;;;;;22.50;12.20;;;;;;;-2.97;67.19;102112.05;84304;1336;21963;-80
2022/03/14 03:39:46;;;;;;;25.20;15.30;;;;;;;-3.00;67.23;102108.52;84268;1337;22723;-80
2022/03/14 03:41:58;;;;;;;21.70;14.10;;;;;;;-3.01;67.38;102107.40;84286;1338;24188;-80
2022/03/14 03:44:09;;;;;;;25.60;12.90;;;;;;;-3.01;67.46;102110.51;84257;1336;22836;-79
2022/03/14 03:46:18;;;;;;;22.50;13.90;;;;;;;-3.00;67.75;102106.66;84261;1337;22623;-68
2022/03/14 03:48:30;;;;;;;25.30;15.50;;;;;;;-2.95;68.13;102111.45;84282;1337;22593;-68
2022/03/14 03:50:39;;;;;;;24.50;13.60;;;;;;;-2.91;68.82;102114.73;84282;1338;22609;-77
2022/03/14 03:52:48;;;;;;;26.70;14.00;;;;;;;-2.88;68.42;102114.52;84274;1336;23996;-78
2022/03/14 03:55:00;;;;;;;30.50;14.80;;;;;;;-2.85;68.27;102116.16;84290;1338;25160;-74
2022/03/14 03:57:12;;;;;;;28.10;14.80;;;;;;;-2.84;68.40;102119.30;83577;1336;1003756;-78
2022/03/14 03:59:22;;;;;;;25.60;14.50;;;;;;;-2.83;68.50;102121.89;83577;1337;1003286;-78
2022/03/14 04:01:31;;;;;;;28.50;15.70;;;;;;;-2.82;68.39;102123.11;83586;1333;1003557;-70
2022/03/14 04:03:41;;;;;;;23.90;14.10;;;;;;;-2.85;68.00;102123.52;84281;1337;22826;-70
2022/03/14 04:05:51;;;;;;;28.00;14.50;;;;;;;-2.89;68.02;102123.00;84286;1338;24101;-70
2022/03/14 04:08:04;;;;;;;22.40;14.10;;;;;;;-2.93;67.92;102127.23;84129;1338;22601;-70
2022/03/14 04:10:15;;;;;;;23.20;13.90;;;;;;;-2.96;68.20;102125.10;84140;1339;22836;-78
2022/03/14 04:12:25;;;;;;;28.30;14.80;;;;;;;-2.99;68.11;102122.70;84261;1336;23940;-79
2022/03/14 04:14:34;;;;;;;25.00;14.00;;;;;;;-3.03;67.97;102128.01;84294;1338;25480;-78
2022/03/14 04:16:46;;;;;;;23.60;14.00;;;;;;;-3.07;68.06;102123.55;84293;1336;22643;-79
2022/03/14 04:18:55;;;;;;;24.20;14.60;;;;;;;-3.11;68.02;102122.89;84288;1333;22597;-79
2022/03/14 04:21:04;;;;;;;24.90;14.20;;;;;;;-3.13;67.97;102121.58;84303;1338;22777;-79
2022/03/14 04:23:13;;;;;;;25.10;13.20;;;;;;;-3.14;68.36;102120.70;84282;1336;22624;-79
2022/03/14 04:25:22;;;;;;;25.70;14.20;;;;;;;-3.13;68.55;102121.26;84105;1338;23788;-70
2022/03/14 04:27:31;;;;;;;24.40;13.50;;;;;;;-3.12;68.63;102121.28;84292;1340;24232;-73
2022/03/14 04:29:40;;;;;;;22.40;13.10;;;;;;;-3.13;68.71;102119.03;84114;1340;22602;-69
2022/03/14 04:31:49;;;;;;;28.70;14.90;;;;;;;-3.15;68.61;102114.82;84276;1337;22562;-80
2022/03/14 04:34:01;;;;;;;29.00;14.30;;;;;;;-3.17;68.68;102122.43;84274;1336;26773;-80
2022/03/14 04:36:10;;;;;;;24.70;14.00;;;;;;;-3.20;68.73;102125.20;84255;1338;25451;-80
2022/03/14 04:38:19;;;;;;;32.00;16.60;;;;;;;-3.21;69.23;102126.86;84287;1339;24169;-81
2022/03/14 04:40:28;;;;;;;36.90;19.70;;;;;;;-3.20;69.34;102128.92;84322;1339;22596;-79
2022/03/14 04:42:37;;;;;;;34.00;18.00;;;;;;;-3.23;69.29;102131.70;84308;1337;22693;-78
2022/03/14 04:44:46;;;;;;;27.40;16.40;;;;;;;-3.24;69.25;102131.51;84284;1337;22571;-80
2022/03/14 04:46:55;;;;;;;26.70;16.70;;;;;;;-3.23;69.13;102138.34;84118;1339;22612;-78
2022/03/14 04:49:05;;;;;;;22.90;15.40;;;;;;;-3.22;69.75;102141.27;84266;1338;22607;-78
2022/03/14 04:51:14;;;;;;;31.90;15.30;;;;;;;-3.19;69.55;102143.15;84308;1338;22630;-69
2022/03/14 04:53:26;;;;;;;50.70;22.30;;;;;;;-3.16;69.99;102145.98;84278;1337;25403;-70
2022/03/14 04:55:38;;;;;;;37.10;20.00;;;;;;;-3.14;69.58;102147.52;84289;1334;22616;-79
2022/03/14 04:57:51;;;;;;;34.10;17.40;;;;;;;-3.12;69.36;102152.01;84277;1332;22593;-78
2022/03/14 05:00:00;;;;;;;28.10;16.70;;;;;;;-3.12;69.22;102159.50;84288;1337;23706;-69
2022/03/14 05:02:13;;;;;;;40.20;18.10;;;;;;;-3.14;69.14;102164.23;84101;1338;22862;-69
2022/03/14 05:04:22;;;;;;;28.30;16.00;;;;;;;-3.15;69.38;102165.89;84279;1337;24369;-71
2022/03/14 05:06:32;;;;;;;31.70;16.50;;;;;;;-3.15;69.35;102169.32;84302;1333;22790;-71
2022/03/14 05:08:42;;;;;;;29.50;17.30;;;;;;;-3.16;69.31;102165.48;84267;1338;22593;-69
2022/03/14 05:10:51;;;;;;;34.70;16.80;;;;;;;-3.17;69.30;102163.54;84314;1338;24310;-79
2022/03/14 05:13:01;;;;;;;42.10;22.30;;;;;;;-3.18;69.28;102161.47;84297;1337;22654;-79
2022/03/14 05:15:10;;;;;;;;;;;;;;;-3.18;69.36;102161.45;84302;1338;24115;-69
2022/03/14 05:17:20;;;;;;;67.90;28.20;;;;;;;-3.20;69.73;102164.61;84296;1338;24227;-69
2022/03/14 05:19:32;;;;;;;88.70;34.90;;;;;;;-3.20;69.71;102160.01;84294;1337;26498;-69
2022/03/14 05:21:42;;;;;;;47.60;22.80;;;;;;;-3.18;69.76;102161.99;84096;1336;22827;-69
2022/03/14 05:23:51;;;;;;;55.90;24.90;;;;;;;-3.13;69.81;102163.75;84308;1338;22625;-69
2022/03/14 05:26:00;;;;;;;56.70;25.60;;;;;;;-3.05;69.95;102164.92;84323;1333;22671;-70
2022/03/14 05:28:24;;;;;;;48.00;23.20;;;;;;;-2.97;70.01;102165.99;84263;1336;22589;-69
2022/03/14 05:30:39;;;;;;;63.80;25.70;;;;;;;-2.87;70.17;102166.98;84252;1337;23915;-79
2022/03/14 05:32:48;;;;;;;53.20;24.80;;;;;;;-2.80;70.03;102170.20;83608;1339;1018893;-79
2022/03/14 05:34:57;;;;;;;60.40;26.80;;;;;;;-2.73;70.10;102173.41;84268;1337;22627;-79
2022/03/14 05:37:06;;;;;;;51.50;23.50;;;;;;;-2.66;69.94;102173.59;83370;1341;1002636;-71
2022/03/14 05:39:17;;;;;;;58.30;25.90;;;;;;;-2.58;69.91;102180.42;84300;1338;22728;-69
2022/03/14 05:41:26;;;;;;;41.90;18.30;;;;;;;-2.51;70.13;102182.27;84279;1334;22671;-77
2022/03/14 05:43:37;;;;;;;38.70;19.50;;;;;;;-2.45;69.93;102183.05;83560;1336;1003397;-77
2022/03/14 05:45:46;;;;;;;34.00;17.60;;;;;;;-2.37;70.26;102184.23;83558;1336;1003957;-70
2022/03/14 05:47:55;;;;;;;37.20;18.70;;;;;;;-2.28;70.06;102187.35;84099;1338;22628;-70
2022/03/14 05:50:04;;;;;;;34.50;18.80;;;;;;;-2.10;70.00;102185.39;84254;1337;24007;-76
2022/03/14 05:52:14;;;;;;;34.00;18.00;;;;;;;-1.57;70.28;102183.20;83398;1337;1003210;-78
2022/03/14 05:54:23;;;;;;;37.10;17.40;;;;;;;-0.95;69.42;102178.73;84242;1337;23703;-74
2022/03/14 05:56:32;;;;;;;30.80;16.50;;;;;;;-0.30;68.61;102179.23;84274;1338;22556;-76
2022/03/14 05:58:41;;;;;;;31.10;16.80;;;;;;;0.69;68.41;102175.49;84183;1337;25284;-76
2022/03/14 06:00:54;;;;;;;28.30;16.40;;;;;;;1.80;65.71;102176.85;84248;1337;22622;-70
2022/03/14 06:03:03;;;;;;;31.90;16.30;;;;;;;2.75;64.47;102170.76;84269;1338;25913;-69
2022/03/14 06:05:15;;;;;;;31.40;17.60;;;;;;;3.77;62.56;102165.98;84264;1338;22601;-68
2022/03/14 06:07:24;;;;;;;27.00;14.90;;;;;;;4.65;59.30;102163.17;84142;1338;22592;-70
2022/03/14 06:09:34;;;;;;;27.60;15.60;;;;;;;5.37;58.04;102162.06;84257;1337;22571;-70
2022/03/14 06:11:43;;;;;;;33.10;18.80;;;;;;;6.12;55.32;102158.55;84272;1336;25332;-69
2022/03/14 06:13:52;;;;;;;31.00;16.70;;;;;;;6.88;53.11;102154.61;84260;1338;23989;-71
2022/03/14 06:16:02;;;;;;;34.30;18.10;;;;;;;7.43;51.91;102153.30;84105;1339;24241;-77
2022/03/14 06:18:11;;;;;;;23.70;14.10;;;;;;;8.22;49.76;102148.60;84269;1338;24312;-78
2022/03/14 06:20:24;;;;;;;22.80;13.50;;;;;;;8.78;47.03;102150.83;84096;1338;22839;-71
2022/03/14 06:22:34;;;;;;;43.90;21.40;;;;;;;9.26;46.56;102150.70;84279;1337;22668;-71
2022/03/14 06:24:40;;;;;;;30.70;16.20;;;;;;;9.57;45.21;102149.15;84269;1339;22680;-70
2022/03/14 06:26:47;;;;;;;26.60;13.50;;;;;;;9.60;42.85;102155.24;84110;1338;24135;-71
2022/03/14 06:28:54;;;;;;;20.80;12.60;;;;;;;9.48;43.56;102155.82;84281;1339;22591;-72
2022/03/14 06:31:00;;;;;;;20.20;12.90;;;;;;;9.37;42.83;102159.89;84313;1338;22623;-71
2022/03/14 06:33:07;;;;;;;21.00;14.80;;;;;;;9.45;42.76;102162.96;84271;1339;22688;-72
2022/03/14 06:35:17;;;;;;;22.60;12.80;;;;;;;9.72;42.11;102156.73;84314;1338;23878;-70
2022/03/14 06:37:24;;;;;;;23.90;13.90;;;;;;;9.63;41.43;102160.44;84271;1337;22982;-71
2022/03/14 06:39:35;;;;;;;19.40;13.60;;;;;;;9.58;40.99;102159.77;84266;1337;22863;-70
2022/03/14 06:41:42;;;;;;;20.10;12.90;;;;;;;9.39;39.98;102161.79;84279;1339;22609;-78
2022/03/14 06:43:48;;;;;;;24.30;14.70;;;;;;;8.84;39.99;102157.95;84282;1336;22787;-79
2022/03/14 06:45:58;;;;;;;18.20;12.60;;;;;;;8.65;40.78;102161.30;84307;1338;23865;-78
2022/03/14 06:48:11;;;;;;;15.60;12.70;;;;;;;8.72;40.86;102162.86;84315;1337;22630;-79
2022/03/14 06:50:21;;;;;;;20.20;12.30;;;;;;;8.81;40.60;102160.58;84327;1336;22870;-78
2022/03/14 06:52:31;;;;;;;19.00;13.10;;;;;;;8.83;40.46;102163.88;84309;1339;22620;-78
2022/03/14 06:54:41;;;;;;;21.40;14.20;;;;;;;8.93;40.04;102164.38;84306;1334;22612;-77
2022/03/14 06:56:49;;;;;;;19.10;12.40;;;;;;;9.11;40.28;102165.38;84317;1336;23991;-71
2022/03/14 06:58:55;;;;;;;19.20;13.60;;;;;;;9.42;40.13;102171.17;84196;1337;25335;-71
2022/03/14 07:01:02;;;;;;;17.80;12.10;;;;;;;9.96;39.28;102165.82;84294;1337;25452;-78
2022/03/14 07:03:09;;;;;;;16.50;12.70;;;;;;;10.39;38.29;102158.04;84299;1333;22731;-76
2022/03/14 07:05:17;;;;;;;20.70;13.40;;;;;;;10.68;37.59;102159.49;84349;1333;24468;-76
2022/03/14 07:07:24;;;;;;;19.20;12.40;;;;;;;10.64;36.92;102162.16;84287;1337;22643;-77
2022/03/14 07:09:32;;;;;;;22.90;13.80;;;;;;;10.53;36.33;102164.37;84312;1337;22628;-76
2022/03/14 07:11:38;;;;;;;22.90;13.90;;;;;;;10.35;36.27;102162.08;84328;1338;22621;-70
2022/03/14 07:13:48;;;;;;;18.50;13.40;;;;;;;10.23;37.23;102161.80;84306;1336;22826;-70
2022/03/14 07:15:54;;;;;;;20.80;13.20;;;;;;;9.97;37.53;102165.48;84298;1337;22592;-76
2022/03/14 07:18:04;;;;;;;18.70;12.00;;;;;;;9.94;37.04;102166.36;84318;1337;23370;-77
2022/03/14 07:20:15;;;;;;;18.00;12.70;;;;;;;10.19;37.92;102166.18;84338;1337;23919;-75
2022/03/14 07:22:21;;;;;;;25.30;13.50;;;;;;;10.67;37.26;102165.44;84347;1337;22637;-76
2022/03/14 07:24:32;;;;;;;17.80;12.90;;;;;;;11.04;36.60;102165.59;84303;1337;22622;-74
2022/03/14 07:26:43;;;;;;;18.60;13.40;;;;;;;11.40;35.80;102164.81;84338;1332;22617;-69
2022/03/14 07:31:16;;;;;;;19.00;13.40;;;;;;;12.00;34.48;102164.88;82175;1366;545014;-76
2022/03/14 07:33:23;;;;;;;22.30;14.40;;;;;;;12.27;34.29;102159.71;84268;1339;22611;-75
2022/03/14 07:35:30;;;;;;;22.20;13.20;;;;;;;12.46;33.33;102163.61;84794;1326;22591;-71
2022/03/14 07:37:37;;;;;;;19.10;14.00;;;;;;;12.53;33.40;102163.30;84693;1325;22601;-71
2022/03/14 07:39:44;;;;;;;16.70;12.80;;;;;;;12.69;32.68;102167.23;84767;1323;22844;-71
2022/03/14 07:41:52;;;;;;;17.80;14.10;;;;;;;12.75;32.10;102158.69;84749;1326;24861;-70
2022/03/14 07:44:00;;;;;;;22.90;16.20;;;;;;;13.06;32.64;102161.98;84771;1330;22584;-70
2022/03/14 07:46:10;;;;;;;22.30;14.40;;;;;;;13.53;31.10;102165.77;84544;1321;22634;-70
2022/03/14 07:48:17;;;;;;;19.10;13.40;;;;;;;13.89;30.97;102163.02;84860;1323;22690;-70
2022/03/14 07:50:24;;;;;;;23.10;14.10;;;;;;;14.25;31.23;102160.23;84849;1325;25468;-71
2022/03/14 07:52:34;;;;;;;24.70;14.60;;;;;;;14.80;30.11;102160.42;84822;1326;24410;-71
2022/03/14 07:54:41;;;;;;;19.10;14.60;;;;;;;15.19;28.89;102158.45;84836;1324;22612;-71
2022/03/14 07:56:51;;;;;;;24.00;15.80;;;;;;;15.26;28.56;102157.55;84862;1325;24090;-77
2022/03/14 07:59:03;;;;;;;20.80;14.70;;;;;;;15.65;28.67;102156.21;84843;1324;22621;-77
2022/03/14 08:01:13;;;;;;;18.00;15.00;;;;;;;16.05;28.00;102153.89;84882;1326;22605;-78
2022/03/14 08:03:21;;;;;;;18.80;13.40;;;;;;;16.54;28.20;102151.06;84855;1319;22577;-76
2022/03/14 08:05:31;;;;;;;20.70;14.70;;;;;;;17.13;27.37;102153.02;84877;1325;22854;-77
2022/03/14 08:07:45;;;;;;;23.00;17.00;;;;;;;17.65;26.79;102154.55;84842;1309;22607;-76
2022/03/14 08:09:53;;;;;;;21.50;14.30;;;;;;;18.22;26.00;102149.30;84843;1324;22603;-77
2022/03/14 08:12:00;;;;;;;20.50;15.10;;;;;;;18.47;25.38;102151.60;84860;1324;25604;-78
2022/03/14 08:14:10;;;;;;;22.10;14.50;;;;;;;18.62;24.63;102152.17;84844;1324;22585;-77
2022/03/14 08:16:21;;;;;;;23.90;16.00;;;;;;;18.67;24.09;102149.48;84829;1324;22900;-71
2022/03/14 08:18:28;;;;;;;16.60;14.10;;;;;;;18.51;24.56;102147.16;84847;1325;22603;-71
2022/03/14 08:20:37;;;;;;;27.00;18.50;;;;;;;18.60;24.32;102148.72;84847;1318;22932;-71
2022/03/14 08:22:44;;;;;;;27.60;18.20;;;;;;;18.75;23.75;102147.58;84868;1322;22889;-71
2022/03/14 08:24:52;;;;;;;23.20;15.40;;;;;;;18.73;23.16;102145.90;84836;1324;22577;-71
2022/03/14 08:26:59;;;;;;;25.80;14.90;;;;;;;18.43;23.80;102144.86;84843;1324;22601;-77
2022/03/14 08:29:05;;;;;;;20.40;15.60;;;;;;;18.64;24.10;102144.66;84827;1324;23085;-77
2022/03/14 08:31:12;;;;;;;25.90;17.50;;;;;;;19.07;23.85;102144.03;84844;1324;25259;-71
2022/03/14 08:33:21;;;;;;;26.50;17.70;;;;;;;19.24;23.00;102145.54;84827;1324;25579;-71
2022/03/14 08:35:30;;;;;;;25.90;16.20;;;;;;;19.28;23.11;102140.92;84792;1327;24238;-71
2022/03/14 08:37:38;;;;;;;23.10;16.80;;;;;;;19.43;22.95;102139.70;84838;1322;22593;-71
2022/03/14 08:39:47;;;;;;;27.80;16.60;;;;;;;19.65;22.84;102140.96;84842;1319;22615;-72
2022/03/14 08:41:56;;;;;;;24.80;16.00;;;;;;;19.87;22.68;102141.38;84859;1325;25269;-71
2022/03/14 08:44:08;;;;;;;30.50;18.40;;;;;;;20.22;22.50;102137.82;84793;1326;25439;-71
2022/03/14 08:46:22;;;;;;;19.70;15.60;;;;;;;20.49;21.84;102137.71;84784;1322;22593;-71
2022/03/14 08:48:31;;;;;;;25.20;18.40;;;;;;;20.47;21.62;102140.67;84811;1325;22600;-69
2022/03/14 08:50:40;;;;;;;19.60;15.60;;;;;;;20.38;21.50;102136.33;84802;1327;22794;-79
2022/03/14 08:52:53;;;;;;;23.90;16.60;;;;;;;20.40;21.52;102134.28;84821;1326;22754;-72
2022/03/14 08:55:08;;;;;;;19.80;15.60;;;;;;;20.47;21.24;102131.10;84830;1322;22624;-71
2022/03/14 08:57:17;;;;;;;20.60;16.00;;;;;;;20.46;21.36;102133.06;84803;1322;22642;-77
2022/03/14 08:59:29;;;;;;;22.90;16.20;;;;;;;20.54;21.17;102131.63;84805;1326;22827;-77
2022/03/14 09:01:38;;;;;;;25.60;15.70;;;;;;;20.65;20.91;102130.34;84794;1327;22587;-76
2022/03/14 09:03:49;;;;;;;20.90;16.40;;;;;;;20.66;20.58;102139.00;84812;1325;22580;-75
2022/03/14 09:05:58;;;;;;;21.90;16.90;;;;;;;20.44;20.14;102134.96;84751;1322;22584;-76
2022/03/14 09:08:08;;;;;;;22.20;16.60;;;;;;;20.31;20.69;102138.28;84843;1322;22640;-76
2022/03/14 09:10:20;;;;;;;20.50;17.10;;;;;;;20.39;21.40;102130.95;84816;1326;25452;-79
2022/03/14 09:12:30;;;;;;;23.80;17.10;;;;;;;20.46;20.38;102129.71;84809;1325;24572;-80
2022/03/14 09:14:38;;;;;;;22.00;17.20;;;;;;;20.38;20.62;102122.15;84799;1324;22590;-78
2022/03/14 09:16:47;;;;;;;30.40;20.90;;;;;;;20.47;20.75;102122.91;84817;1322;22605;-79
2022/03/14 09:18:56;;;;;;;23.10;16.20;;;;;;;20.75;20.53;102122.54;84826;1327;22739;-77
2022/03/14 09:21:08;;;;;;;20.80;17.30;;;;;;;20.84;20.51;102124.55;84801;1326;22614;-79
2022/03/14 09:23:18;;;;;;;18.40;16.20;;;;;;;20.97;20.06;102123.52;84771;1325;25432;-79
2022/03/14 09:25:29;;;;;;;21.70;16.90;;;;;;;21.00;19.84;102126.88;84836;1327;22837;-79
2022/03/14 09:27:41;;;;;;;22.30;16.40;;;;;;;20.97;20.28;102124.04;84830;1327;25199;-78
2022/03/14 09:29:52;;;;;;;20.20;15.40;;;;;;;21.05;19.88;102122.00;84802;1325;22694;-77
2022/03/14 09:32:01;;;;;;;28.90;18.60;;;;;;;20.98;19.06;102125.94;84801;1325;23977;-78
2022/03/14 09:34:09;;;;;;;25.70;18.60;;;;;;;20.39;19.30;102118.02;84794;1326;22718;-78
2022/03/14 09:36:18;;;;;;;22.80;17.30;;;;;;;20.16;19.79;102116.68;84775;1326;22623;-72
2022/03/14 09:38:30;;;;;;;25.90;18.50;;;;;;;20.10;20.11;102115.39;84794;1327;23872;-71
2022/03/14 09:40:39;;;;;;;22.00;16.80;;;;;;;19.83;19.40;102116.59;84824;1326;22584;-69
2022/03/14 09:42:51;;;;;;;21.60;16.00;;;;;;;19.33;19.87;102113.27;84740;1326;22587;-72
2022/03/14 09:45:01;;;;;;;22.70;16.60;;;;;;;19.24;20.47;102105.73;84800;1326;22555;-74
2022/03/14 09:47:13;;;;;;;24.50;16.80;;;;;;;19.15;20.45;102102.64;84820;1327;24232;-76
2022/03/14 09:49:24;;;;;;;25.70;16.20;;;;;;;19.12;20.65;102104.38;84772;1325;22606;-77
2022/03/14 09:51:30;;;;;;;20.40;16.50;;;;;;;19.14;20.88;102106.59;84795;1327;24131;-75